sensor_id;sensor_type;location;lat;lon;timestamp;P1;durP1;ratioP1;P2;durP2;ratioP2
10244;SDS011;5167;52.164;10.530;2023-09-30T00:00:00;8.82;;;2.47;;
10244;SDS011;5167;52.164;10.530;2023-09-30T00:02:26;11.40;;;3.55;;
10244;SDS011;5167;52.164;10.530;2023-09-30T00:04:52;15.25;;;3.85;;
10244;SDS011;5167;52.164;10.530;2023-09-30T00:07:18;6.90;;;2.75;;
10244;SDS011;5167;52.164;10.530;2023-09-30T00:09:43;7.43;;;2.67;;
10244;SDS011;5167;52.164;10.530;2023-09-30T00:12:09;10.95;;;2.88;;
10244;SDS011;5167;52.164;10.530;2023-09-30T00:14:34;7.90;;;3.08;;
10244;SDS011;5167;52.164;10.530;2023-09-30T00:17:02;15.57;;;3.10;;
10244;SDS011;5167;52.164;10.530;2023-09-30T00:19:28;11.27;;;3.35;;
10244;SDS011;5167;52.164;10.530;2023-09-30T00:21:53;8.25;;;3.20;;
10244;SDS011;5167;52.164;10.530;2023-09-30T00:24:19;13.38;;;4.13;;
10244;SDS011;5167;52.164;10.530;2023-09-30T00:26:44;10.10;;;2.80;;
10244;SDS011;5167;52.164;10.530;2023-09-30T00:29:11;11.07;;;3.03;;
10244;SDS011;5167;52.164;10.530;2023-09-30T00:31:36;11.25;;;3.05;;
10244;SDS011;5167;52.164;10.530;2023-09-30T00:34:02;10.45;;;3.63;;
10244;SDS011;5167;52.164;10.530;2023-09-30T00:36:27;9.10;;;2.80;;
10244;SDS011;5167;52.164;10.530;2023-09-30T00:38:53;9.85;;;2.97;;
10244;SDS011;5167;52.164;10.530;2023-09-30T00:41:18;16.35;;;3.78;;
10244;SDS011;5167;52.164;10.530;2023-09-30T00:43:47;11.52;;;3.00;;
10244;SDS011;5167;52.164;10.530;2023-09-30T00:46:25;9.98;;;2.88;;
10244;SDS011;5167;52.164;10.530;2023-09-30T00:48:56;7.95;;;3.10;;
10244;SDS011;5167;52.164;10.530;2023-09-30T00:51:23;9.38;;;3.05;;
10244;SDS011;5167;52.164;10.530;2023-09-30T00:53:49;11.15;;;3.30;;
10244;SDS011;5167;52.164;10.530;2023-09-30T00:56:17;8.32;;;2.72;;
10244;SDS011;5167;52.164;10.530;2023-09-30T00:58:43;15.05;;;3.22;;
10244;SDS011;5167;52.164;10.530;2023-09-30T01:01:11;11.48;;;3.33;;
10244;SDS011;5167;52.164;10.530;2023-09-30T01:03:37;12.25;;;3.03;;
10244;SDS011;5167;52.164;10.530;2023-09-30T01:06:03;11.73;;;3.33;;
10244;SDS011;5167;52.164;10.530;2023-09-30T01:08:29;7.25;;;3.25;;
10244;SDS011;5167;52.164;10.530;2023-09-30T01:10:55;11.10;;;2.80;;
10244;SDS011;5167;52.164;10.530;2023-09-30T01:13:21;15.88;;;2.80;;
10244;SDS011;5167;52.164;10.530;2023-09-30T01:15:47;12.82;;;2.70;;
10244;SDS011;5167;52.164;10.530;2023-09-30T01:18:12;10.00;;;2.47;;
10244;SDS011;5167;52.164;10.530;2023-09-30T01:20:38;12.20;;;2.95;;
10244;SDS011;5167;52.164;10.530;2023-09-30T01:23:04;10.00;;;3.20;;
10244;SDS011;5167;52.164;10.530;2023-09-30T01:25:30;10.00;;;2.92;;
10244;SDS011;5167;52.164;10.530;2023-09-30T01:27:56;10.13;;;3.55;;
10244;SDS011;5167;52.164;10.530;2023-09-30T01:30:25;9.23;;;2.70;;
10244;SDS011;5167;52.164;10.530;2023-09-30T01:32:50;12.05;;;2.50;;
10244;SDS011;5167;52.164;10.530;2023-09-30T01:35:16;13.23;;;3.03;;
10244;SDS011;5167;52.164;10.530;2023-09-30T01:37:41;8.15;;;2.70;;
10244;SDS011;5167;52.164;10.530;2023-09-30T01:40:07;7.22;;;2.67;;
10244;SDS011;5167;52.164;10.530;2023-09-30T01:42:33;8.75;;;2.80;;
10244;SDS011;5167;52.164;10.530;2023-09-30T01:44:59;12.60;;;2.65;;
10244;SDS011;5167;52.164;10.530;2023-09-30T01:47:24;6.68;;;2.53;;
10244;SDS011;5167;52.164;10.530;2023-09-30T01:49:50;13.93;;;3.05;;
10244;SDS011;5167;52.164;10.530;2023-09-30T01:52:15;11.85;;;3.13;;
10244;SDS011;5167;52.164;10.530;2023-09-30T01:54:41;6.78;;;2.83;;
10244;SDS011;5167;52.164;10.530;2023-09-30T01:57:06;13.93;;;3.03;;
10244;SDS011;5167;52.164;10.530;2023-09-30T01:59:32;15.20;;;2.95;;
10244;SDS011;5167;52.164;10.530;2023-09-30T02:01:57;11.00;;;3.35;;
10244;SDS011;5167;52.164;10.530;2023-09-30T02:04:23;15.52;;;3.67;;
10244;SDS011;5167;52.164;10.530;2023-09-30T02:06:48;9.15;;;3.10;;
10244;SDS011;5167;52.164;10.530;2023-09-30T02:09:14;11.85;;;2.97;;
10244;SDS011;5167;52.164;10.530;2023-09-30T02:11:39;8.80;;;3.47;;
10244;SDS011;5167;52.164;10.530;2023-09-30T02:14:06;9.57;;;3.53;;
10244;SDS011;5167;52.164;10.530;2023-09-30T02:16:31;14.77;;;2.78;;
10244;SDS011;5167;52.164;10.530;2023-09-30T02:18:57;11.85;;;2.83;;
10244;SDS011;5167;52.164;10.530;2023-09-30T02:21:23;9.55;;;2.92;;
10244;SDS011;5167;52.164;10.530;2023-09-30T02:23:49;11.95;;;3.33;;
10244;SDS011;5167;52.164;10.530;2023-09-30T02:26:19;11.25;;;3.30;;
10244;SDS011;5167;52.164;10.530;2023-09-30T02:28:45;12.68;;;3.28;;
10244;SDS011;5167;52.164;10.530;2023-09-30T02:31:11;11.05;;;3.78;;
10244;SDS011;5167;52.164;10.530;2023-09-30T02:33:37;10.05;;;3.10;;
10244;SDS011;5167;52.164;10.530;2023-09-30T02:36:06;13.70;;;3.35;;
10244;SDS011;5167;52.164;10.530;2023-09-30T02:38:33;18.88;;;4.35;;
10244;SDS011;5167;52.164;10.530;2023-09-30T02:40:59;20.30;;;4.30;;
10244;SDS011;5167;52.164;10.530;2023-09-30T02:43:25;12.57;;;4.00;;
10244;SDS011;5167;52.164;10.530;2023-09-30T02:45:50;11.73;;;4.00;;
10244;SDS011;5167;52.164;10.530;2023-09-30T02:48:16;13.05;;;4.43;;
10244;SDS011;5167;52.164;10.530;2023-09-30T02:50:42;15.40;;;4.07;;
10244;SDS011;5167;52.164;10.530;2023-09-30T02:53:09;12.07;;;3.33;;
10244;SDS011;5167;52.164;10.530;2023-09-30T02:55:36;11.60;;;3.90;;
10244;SDS011;5167;52.164;10.530;2023-09-30T02:58:01;8.85;;;3.25;;
10244;SDS011;5167;52.164;10.530;2023-09-30T03:00:27;9.05;;;3.60;;
10244;SDS011;5167;52.164;10.530;2023-09-30T03:02:57;12.25;;;3.35;;
10244;SDS011;5167;52.164;10.530;2023-09-30T03:05:24;17.58;;;4.57;;
10244;SDS011;5167;52.164;10.530;2023-09-30T03:07:49;10.13;;;3.70;;
10244;SDS011;5167;52.164;10.530;2023-09-30T03:10:15;7.43;;;3.13;;
10244;SDS011;5167;52.164;10.530;2023-09-30T03:12:51;16.75;;;3.60;;
10244;SDS011;5167;52.164;10.530;2023-09-30T03:15:18;14.18;;;3.45;;
10244;SDS011;5167;52.164;10.530;2023-09-30T03:17:44;10.23;;;3.25;;
10244;SDS011;5167;52.164;10.530;2023-09-30T03:20:09;11.70;;;3.63;;
10244;SDS011;5167;52.164;10.530;2023-09-30T03:22:42;17.35;;;3.45;;
10244;SDS011;5167;52.164;10.530;2023-09-30T03:25:11;17.23;;;3.72;;
10244;SDS011;5167;52.164;10.530;2023-09-30T03:27:37;12.60;;;3.38;;
10244;SDS011;5167;52.164;10.530;2023-09-30T03:30:04;10.25;;;3.13;;
10244;SDS011;5167;52.164;10.530;2023-09-30T03:32:30;7.43;;;3.80;;
10244;SDS011;5167;52.164;10.530;2023-09-30T03:34:58;10.77;;;3.70;;
10244;SDS011;5167;52.164;10.530;2023-09-30T03:37:25;14.60;;;3.53;;
10244;SDS011;5167;52.164;10.530;2023-09-30T03:39:53;11.55;;;3.80;;
10244;SDS011;5167;52.164;10.530;2023-09-30T03:42:19;13.13;;;3.63;;
10244;SDS011;5167;52.164;10.530;2023-09-30T03:44:45;10.13;;;3.00;;
10244;SDS011;5167;52.164;10.530;2023-09-30T03:47:10;9.70;;;2.83;;
10244;SDS011;5167;52.164;10.530;2023-09-30T03:49:36;14.95;;;3.30;;
10244;SDS011;5167;52.164;10.530;2023-09-30T03:52:03;9.88;;;2.90;;
10244;SDS011;5167;52.164;10.530;2023-09-30T03:54:29;10.27;;;2.70;;
10244;SDS011;5167;52.164;10.530;2023-09-30T03:56:55;10.60;;;3.13;;
10244;SDS011;5167;52.164;10.530;2023-09-30T03:59:20;15.45;;;4.00;;
10244;SDS011;5167;52.164;10.530;2023-09-30T04:01:46;15.13;;;2.85;;
10244;SDS011;5167;52.164;10.530;2023-09-30T04:04:12;10.60;;;3.05;;
10244;SDS011;5167;52.164;10.530;2023-09-30T04:06:37;9.10;;;2.95;;
10244;SDS011;5167;52.164;10.530;2023-09-30T04:09:04;10.02;;;3.28;;
10244;SDS011;5167;52.164;10.530;2023-09-30T04:11:35;11.77;;;2.80;;
10244;SDS011;5167;52.164;10.530;2023-09-30T04:14:01;11.32;;;3.15;;
10244;SDS011;5167;52.164;10.530;2023-09-30T04:16:28;12.00;;;2.95;;
10244;SDS011;5167;52.164;10.530;2023-09-30T04:18:55;8.68;;;3.60;;
10244;SDS011;5167;52.164;10.530;2023-09-30T04:21:20;13.32;;;3.22;;
10244;SDS011;5167;52.164;10.530;2023-09-30T04:23:46;10.57;;;3.28;;
10244;SDS011;5167;52.164;10.530;2023-09-30T04:26:12;9.38;;;3.22;;
10244;SDS011;5167;52.164;10.530;2023-09-30T04:28:37;15.43;;;4.18;;
10244;SDS011;5167;52.164;10.530;2023-09-30T04:31:03;11.18;;;3.00;;
10244;SDS011;5167;52.164;10.530;2023-09-30T04:33:29;17.00;;;4.07;;
10244;SDS011;5167;52.164;10.530;2023-09-30T04:35:55;6.32;;;3.00;;
10244;SDS011;5167;52.164;10.530;2023-09-30T04:38:20;12.82;;;3.47;;
10244;SDS011;5167;52.164;10.530;2023-09-30T04:40:46;7.70;;;2.40;;
10244;SDS011;5167;52.164;10.530;2023-09-30T04:43:16;9.93;;;3.00;;
10244;SDS011;5167;52.164;10.530;2023-09-30T04:45:42;10.68;;;2.90;;
10244;SDS011;5167;52.164;10.530;2023-09-30T04:48:08;10.25;;;3.92;;
10244;SDS011;5167;52.164;10.530;2023-09-30T04:50:33;10.00;;;2.85;;
10244;SDS011;5167;52.164;10.530;2023-09-30T04:52:59;10.07;;;2.70;;
10244;SDS011;5167;52.164;10.530;2023-09-30T04:55:24;13.80;;;3.42;;
10244;SDS011;5167;52.164;10.530;2023-09-30T04:57:51;11.18;;;3.00;;
10244;SDS011;5167;52.164;10.530;2023-09-30T05:00:20;10.80;;;2.78;;
10244;SDS011;5167;52.164;10.530;2023-09-30T05:02:50;12.27;;;2.97;;
10244;SDS011;5167;52.164;10.530;2023-09-30T05:05:17;13.20;;;3.63;;
10244;SDS011;5167;52.164;10.530;2023-09-30T05:07:43;8.43;;;3.05;;
10244;SDS011;5167;52.164;10.530;2023-09-30T05:10:11;10.95;;;2.78;;
10244;SDS011;5167;52.164;10.530;2023-09-30T05:12:40;7.47;;;2.75;;
10244;SDS011;5167;52.164;10.530;2023-09-30T05:15:12;8.63;;;3.00;;
10244;SDS011;5167;52.164;10.530;2023-09-30T05:17:42;17.08;;;3.55;;
10244;SDS011;5167;52.164;10.530;2023-09-30T05:20:09;13.20;;;3.45;;
10244;SDS011;5167;52.164;10.530;2023-09-30T05:22:38;8.75;;;2.90;;
10244;SDS011;5167;52.164;10.530;2023-09-30T05:25:05;13.90;;;2.80;;
10244;SDS011;5167;52.164;10.530;2023-09-30T05:27:32;10.10;;;2.83;;
10244;SDS011;5167;52.164;10.530;2023-09-30T05:29:58;7.32;;;2.70;;
10244;SDS011;5167;52.164;10.530;2023-09-30T05:32:23;11.60;;;3.45;;
10244;SDS011;5167;52.164;10.530;2023-09-30T05:34:51;11.18;;;3.25;;
10244;SDS011;5167;52.164;10.530;2023-09-30T05:37:17;10.20;;;2.83;;
10244;SDS011;5167;52.164;10.530;2023-09-30T05:39:46;13.85;;;3.30;;
10244;SDS011;5167;52.164;10.530;2023-09-30T05:42:13;7.35;;;3.03;;
10244;SDS011;5167;52.164;10.530;2023-09-30T05:44:39;15.27;;;2.75;;
10244;SDS011;5167;52.164;10.530;2023-09-30T05:47:06;13.43;;;3.20;;
10244;SDS011;5167;52.164;10.530;2023-09-30T05:49:31;8.23;;;3.05;;
10244;SDS011;5167;52.164;10.530;2023-09-30T05:51:57;9.98;;;3.03;;
10244;SDS011;5167;52.164;10.530;2023-09-30T05:54:22;11.70;;;3.45;;
10244;SDS011;5167;52.164;10.530;2023-09-30T05:56:48;10.07;;;3.50;;
10244;SDS011;5167;52.164;10.530;2023-09-30T05:59:14;11.30;;;3.22;;
10244;SDS011;5167;52.164;10.530;2023-09-30T06:01:39;12.43;;;3.03;;
10244;SDS011;5167;52.164;10.530;2023-09-30T06:04:07;18.25;;;3.22;;
10244;SDS011;5167;52.164;10.530;2023-09-30T06:06:32;16.90;;;3.10;;
10244;SDS011;5167;52.164;10.530;2023-09-30T06:08:58;8.13;;;2.85;;
10244;SDS011;5167;52.164;10.530;2023-09-30T06:11:24;11.02;;;3.15;;
10244;SDS011;5167;52.164;10.530;2023-09-30T06:13:50;11.88;;;3.33;;
10244;SDS011;5167;52.164;10.530;2023-09-30T06:16:17;11.27;;;2.90;;
10244;SDS011;5167;52.164;10.530;2023-09-30T06:18:43;13.48;;;2.90;;
10244;SDS011;5167;52.164;10.530;2023-09-30T06:21:10;15.05;;;3.42;;
10244;SDS011;5167;52.164;10.530;2023-09-30T06:23:36;9.68;;;3.30;;
10244;SDS011;5167;52.164;10.530;2023-09-30T06:26:02;9.98;;;3.03;;
10244;SDS011;5167;52.164;10.530;2023-09-30T06:28:28;9.93;;;3.35;;
10244;SDS011;5167;52.164;10.530;2023-09-30T06:30:56;8.57;;;3.08;;
10244;SDS011;5167;52.164;10.530;2023-09-30T06:33:22;11.23;;;4.00;;
10244;SDS011;5167;52.164;10.530;2023-09-30T06:35:48;12.95;;;3.00;;
10244;SDS011;5167;52.164;10.530;2023-09-30T06:38:19;9.82;;;3.20;;
10244;SDS011;5167;52.164;10.530;2023-09-30T06:40:45;10.15;;;2.75;;
10244;SDS011;5167;52.164;10.530;2023-09-30T06:43:14;8.50;;;3.35;;
10244;SDS011;5167;52.164;10.530;2023-09-30T06:45:43;10.63;;;2.70;;
10244;SDS011;5167;52.164;10.530;2023-09-30T06:48:09;11.65;;;3.97;;
10244;SDS011;5167;52.164;10.530;2023-09-30T06:50:39;13.63;;;3.08;;
10244;SDS011;5167;52.164;10.530;2023-09-30T06:53:08;8.18;;;2.83;;
10244;SDS011;5167;52.164;10.530;2023-09-30T06:55:34;19.73;;;3.25;;
10244;SDS011;5167;52.164;10.530;2023-09-30T06:58:02;9.98;;;3.35;;
10244;SDS011;5167;52.164;10.530;2023-09-30T07:00:28;18.20;;;4.22;;
10244;SDS011;5167;52.164;10.530;2023-09-30T07:02:54;7.90;;;3.15;;
10244;SDS011;5167;52.164;10.530;2023-09-30T07:05:19;10.63;;;3.08;;
10244;SDS011;5167;52.164;10.530;2023-09-30T07:07:45;13.23;;;3.05;;
10244;SDS011;5167;52.164;10.530;2023-09-30T07:10:11;13.35;;;3.70;;
10244;SDS011;5167;52.164;10.530;2023-09-30T07:12:37;8.48;;;2.90;;
10244;SDS011;5167;52.164;10.530;2023-09-30T07:15:05;8.40;;;3.15;;
10244;SDS011;5167;52.164;10.530;2023-09-30T07:17:32;11.45;;;3.15;;
10244;SDS011;5167;52.164;10.530;2023-09-30T07:19:59;8.90;;;2.53;;
10244;SDS011;5167;52.164;10.530;2023-09-30T07:22:24;7.50;;;3.28;;
10244;SDS011;5167;52.164;10.530;2023-09-30T07:24:50;16.27;;;3.15;;
10244;SDS011;5167;52.164;10.530;2023-09-30T07:27:15;13.40;;;3.08;;
10244;SDS011;5167;52.164;10.530;2023-09-30T07:29:41;11.65;;;3.00;;
10244;SDS011;5167;52.164;10.530;2023-09-30T07:32:08;11.13;;;3.55;;
10244;SDS011;5167;52.164;10.530;2023-09-30T07:34:34;9.35;;;3.35;;
10244;SDS011;5167;52.164;10.530;2023-09-30T07:37:00;6.38;;;2.35;;
10244;SDS011;5167;52.164;10.530;2023-09-30T07:39:25;9.65;;;2.90;;
10244;SDS011;5167;52.164;10.530;2023-09-30T07:41:51;14.15;;;3.10;;
10244;SDS011;5167;52.164;10.530;2023-09-30T07:44:16;9.70;;;3.05;;
10244;SDS011;5167;52.164;10.530;2023-09-30T07:46:42;9.70;;;2.70;;
10244;SDS011;5167;52.164;10.530;2023-09-30T07:49:11;11.13;;;2.72;;
10244;SDS011;5167;52.164;10.530;2023-09-30T07:51:36;10.45;;;2.63;;
10244;SDS011;5167;52.164;10.530;2023-09-30T07:54:04;13.48;;;3.33;;
10244;SDS011;5167;52.164;10.530;2023-09-30T07:56:30;9.90;;;2.85;;
10244;SDS011;5167;52.164;10.530;2023-09-30T07:58:55;7.65;;;3.10;;
10244;SDS011;5167;52.164;10.530;2023-09-30T08:01:21;12.05;;;3.00;;
10244;SDS011;5167;52.164;10.530;2023-09-30T08:03:47;12.48;;;2.75;;
10244;SDS011;5167;52.164;10.530;2023-09-30T08:06:13;5.70;;;2.45;;
10244;SDS011;5167;52.164;10.530;2023-09-30T08:08:38;9.43;;;2.50;;
10244;SDS011;5167;52.164;10.530;2023-09-30T08:11:05;7.90;;;2.88;;
10244;SDS011;5167;52.164;10.530;2023-09-30T08:13:31;6.70;;;2.70;;
10244;SDS011;5167;52.164;10.530;2023-09-30T08:15:57;14.65;;;2.95;;
10244;SDS011;5167;52.164;10.530;2023-09-30T08:18:23;10.05;;;3.08;;
10244;SDS011;5167;52.164;10.530;2023-09-30T08:20:49;9.75;;;3.00;;
10244;SDS011;5167;52.164;10.530;2023-09-30T08:23:14;11.38;;;3.38;;
10244;SDS011;5167;52.164;10.530;2023-09-30T08:25:40;9.98;;;2.75;;
10244;SDS011;5167;52.164;10.530;2023-09-30T08:28:06;11.45;;;2.38;;
10244;SDS011;5167;52.164;10.530;2023-09-30T08:30:35;9.52;;;2.88;;
10244;SDS011;5167;52.164;10.530;2023-09-30T08:33:01;14.10;;;3.78;;
10244;SDS011;5167;52.164;10.530;2023-09-30T08:35:28;10.73;;;3.38;;
10244;SDS011;5167;52.164;10.530;2023-09-30T08:37:54;11.82;;;4.00;;
10244;SDS011;5167;52.164;10.530;2023-09-30T08:40:20;9.93;;;2.65;;
10244;SDS011;5167;52.164;10.530;2023-09-30T08:42:48;12.57;;;3.42;;
10244;SDS011;5167;52.164;10.530;2023-09-30T08:45:16;16.50;;;3.22;;
10244;SDS011;5167;52.164;10.530;2023-09-30T08:47:42;11.38;;;3.55;;
10244;SDS011;5167;52.164;10.530;2023-09-30T08:50:08;10.50;;;2.70;;
10244;SDS011;5167;52.164;10.530;2023-09-30T08:52:35;13.70;;;3.70;;
10244;SDS011;5167;52.164;10.530;2023-09-30T08:55:06;12.50;;;2.70;;
10244;SDS011;5167;52.164;10.530;2023-09-30T08:57:42;9.75;;;3.42;;
10244;SDS011;5167;52.164;10.530;2023-09-30T09:00:08;11.68;;;3.25;;
10244;SDS011;5167;52.164;10.530;2023-09-30T09:02:39;9.10;;;3.17;;
10244;SDS011;5167;52.164;10.530;2023-09-30T09:05:05;8.07;;;2.63;;
10244;SDS011;5167;52.164;10.530;2023-09-30T09:07:31;14.05;;;3.25;;
10244;SDS011;5167;52.164;10.530;2023-09-30T09:10:07;7.20;;;2.42;;
10244;SDS011;5167;52.164;10.530;2023-09-30T09:12:39;8.02;;;3.17;;
10244;SDS011;5167;52.164;10.530;2023-09-30T09:15:06;15.25;;;3.60;;
10244;SDS011;5167;52.164;10.530;2023-09-30T09:17:40;13.32;;;4.25;;
10244;SDS011;5167;52.164;10.530;2023-09-30T09:20:10;13.43;;;3.40;;
10244;SDS011;5167;52.164;10.530;2023-09-30T09:22:38;8.93;;;3.47;;
10244;SDS011;5167;52.164;10.530;2023-09-30T09:25:08;9.65;;;2.65;;
10244;SDS011;5167;52.164;10.530;2023-09-30T09:27:34;8.40;;;3.00;;
10244;SDS011;5167;52.164;10.530;2023-09-30T09:35:19;10.00;;;3.80;;
10244;SDS011;5167;52.164;10.530;2023-09-30T09:37:53;6.43;;;2.55;;
10244;SDS011;5167;52.164;10.530;2023-09-30T09:40:22;10.27;;;2.55;;
10244;SDS011;5167;52.164;10.530;2023-09-30T09:42:49;7.43;;;2.42;;
10244;SDS011;5167;52.164;10.530;2023-09-30T09:45:19;9.45;;;2.55;;
10244;SDS011;5167;52.164;10.530;2023-09-30T09:47:47;4.18;;;2.08;;
10244;SDS011;5167;52.164;10.530;2023-09-30T09:50:13;9.05;;;2.22;;
10244;SDS011;5167;52.164;10.530;2023-09-30T09:52:40;6.15;;;2.28;;
10244;SDS011;5167;52.164;10.530;2023-09-30T09:55:08;6.25;;;1.95;;
10244;SDS011;5167;52.164;10.530;2023-09-30T09:57:36;6.75;;;2.20;;
10244;SDS011;5167;52.164;10.530;2023-09-30T10:00:03;6.53;;;2.00;;
10244;SDS011;5167;52.164;10.530;2023-09-30T10:02:42;8.05;;;2.20;;
10244;SDS011;5167;52.164;10.530;2023-09-30T10:05:08;5.72;;;2.17;;
10244;SDS011;5167;52.164;10.530;2023-09-30T10:07:37;7.65;;;2.40;;
10244;SDS011;5167;52.164;10.530;2023-09-30T10:10:11;10.55;;;2.38;;
10244;SDS011;5167;52.164;10.530;2023-09-30T10:12:40;9.80;;;2.13;;
10244;SDS011;5167;52.164;10.530;2023-09-30T10:18:05;6.45;;;2.00;;
10244;SDS011;5167;52.164;10.530;2023-09-30T10:20:36;13.93;;;3.10;;
10244;SDS011;5167;52.164;10.530;2023-09-30T10:28:39;7.72;;;2.63;;
10244;SDS011;5167;52.164;10.530;2023-09-30T10:36:30;5.13;;;2.17;;
10244;SDS011;5167;52.164;10.530;2023-09-30T10:39:04;7.88;;;2.20;;
10244;SDS011;5167;52.164;10.530;2023-09-30T10:46:52;7.15;;;2.10;;
10244;SDS011;5167;52.164;10.530;2023-09-30T10:51:59;12.32;;;2.47;;
10244;SDS011;5167;52.164;10.530;2023-09-30T10:54:29;5.60;;;2.22;;
10244;SDS011;5167;52.164;10.530;2023-09-30T10:56:56;8.15;;;2.05;;
10244;SDS011;5167;52.164;10.530;2023-09-30T10:59:33;3.53;;;1.50;;
10244;SDS011;5167;52.164;10.530;2023-09-30T11:02:00;6.05;;;2.22;;
10244;SDS011;5167;52.164;10.530;2023-09-30T11:04:25;4.82;;;1.40;;
10244;SDS011;5167;52.164;10.530;2023-09-30T11:06:53;6.85;;;2.20;;
10244;SDS011;5167;52.164;10.530;2023-09-30T11:09:19;6.63;;;2.28;;
10244;SDS011;5167;52.164;10.530;2023-09-30T11:11:47;4.57;;;1.50;;
10244;SDS011;5167;52.164;10.530;2023-09-30T11:14:24;5.15;;;1.65;;
10244;SDS011;5167;52.164;10.530;2023-09-30T11:16:52;7.30;;;2.00;;
10244;SDS011;5167;52.164;10.530;2023-09-30T11:19:19;7.57;;;1.83;;
10244;SDS011;5167;52.164;10.530;2023-09-30T11:21:46;5.28;;;1.40;;
10244;SDS011;5167;52.164;10.530;2023-09-30T11:24:13;3.67;;;2.13;;
10244;SDS011;5167;52.164;10.530;2023-09-30T11:26:39;5.90;;;1.90;;
10244;SDS011;5167;52.164;10.530;2023-09-30T11:29:12;3.28;;;1.85;;
10244;SDS011;5167;52.164;10.530;2023-09-30T11:31:42;4.80;;;1.67;;
10244;SDS011;5167;52.164;10.530;2023-09-30T11:34:10;4.10;;;2.05;;
10244;SDS011;5167;52.164;10.530;2023-09-30T11:36:57;5.20;;;2.53;;
10244;SDS011;5167;52.164;10.530;2023-09-30T11:39:22;7.97;;;2.15;;
10244;SDS011;5167;52.164;10.530;2023-09-30T11:41:51;6.03;;;2.25;;
10244;SDS011;5167;52.164;10.530;2023-09-30T11:44:17;4.78;;;1.75;;
10244;SDS011;5167;52.164;10.530;2023-09-30T11:46:50;3.42;;;1.20;;
10244;SDS011;5167;52.164;10.530;2023-09-30T11:49:36;4.70;;;1.92;;
10244;SDS011;5167;52.164;10.530;2023-09-30T11:52:04;6.22;;;1.95;;
10244;SDS011;5167;52.164;10.530;2023-09-30T11:57:06;3.90;;;2.28;;
10244;SDS011;5167;52.164;10.530;2023-09-30T11:59:34;5.78;;;1.50;;
10244;SDS011;5167;52.164;10.530;2023-09-30T12:02:01;6.80;;;1.88;;
10244;SDS011;5167;52.164;10.530;2023-09-30T12:04:28;6.30;;;2.63;;
10244;SDS011;5167;52.164;10.530;2023-09-30T12:06:54;4.63;;;2.00;;
10244;SDS011;5167;52.164;10.530;2023-09-30T12:09:20;7.68;;;2.53;;
10244;SDS011;5167;52.164;10.530;2023-09-30T12:11:50;6.25;;;1.70;;
10244;SDS011;5167;52.164;10.530;2023-09-30T12:14:16;8.40;;;3.20;;
10244;SDS011;5167;52.164;10.530;2023-09-30T12:16:42;9.43;;;4.10;;
10244;SDS011;5167;52.164;10.530;2023-09-30T12:19:10;5.57;;;1.83;;
10244;SDS011;5167;52.164;10.530;2023-09-30T12:21:36;6.22;;;2.08;;
10244;SDS011;5167;52.164;10.530;2023-09-30T12:24:02;4.50;;;2.03;;
10244;SDS011;5167;52.164;10.530;2023-09-30T12:26:30;5.43;;;1.40;;
10244;SDS011;5167;52.164;10.530;2023-09-30T12:28:56;3.45;;;2.10;;
10244;SDS011;5167;52.164;10.530;2023-09-30T12:31:21;5.05;;;2.42;;
10244;SDS011;5167;52.164;10.530;2023-09-30T12:33:48;5.40;;;1.75;;
10244;SDS011;5167;52.164;10.530;2023-09-30T12:36:15;3.75;;;1.50;;
10244;SDS011;5167;52.164;10.530;2023-09-30T12:38:45;4.60;;;1.45;;
10244;SDS011;5167;52.164;10.530;2023-09-30T12:41:10;5.72;;;1.70;;
10244;SDS011;5167;52.164;10.530;2023-09-30T12:43:38;6.38;;;1.67;;
10244;SDS011;5167;52.164;10.530;2023-09-30T12:46:03;3.83;;;1.27;;
10244;SDS011;5167;52.164;10.530;2023-09-30T12:48:32;9.95;;;1.65;;
10244;SDS011;5167;52.164;10.530;2023-09-30T12:50:58;7.57;;;2.45;;
10244;SDS011;5167;52.164;10.530;2023-09-30T12:53:23;5.60;;;1.52;;
10244;SDS011;5167;52.164;10.530;2023-09-30T12:55:49;6.60;;;1.70;;
10244;SDS011;5167;52.164;10.530;2023-09-30T12:58:15;4.47;;;1.90;;
10244;SDS011;5167;52.164;10.530;2023-09-30T13:00:40;4.22;;;1.40;;
10244;SDS011;5167;52.164;10.530;2023-09-30T13:03:06;4.25;;;1.30;;
10244;SDS011;5167;52.164;10.530;2023-09-30T13:05:32;3.97;;;1.30;;
10244;SDS011;5167;52.164;10.530;2023-09-30T13:07:58;4.07;;;1.40;;
10244;SDS011;5167;52.164;10.530;2023-09-30T13:10:24;3.60;;;1.10;;
10244;SDS011;5167;52.164;10.530;2023-09-30T13:12:50;3.83;;;1.27;;
10244;SDS011;5167;52.164;10.530;2023-09-30T13:15:16;4.63;;;1.23;;
10244;SDS011;5167;52.164;10.530;2023-09-30T13:17:44;9.23;;;1.30;;
10244;SDS011;5167;52.164;10.530;2023-09-30T13:20:10;6.93;;;1.70;;
10244;SDS011;5167;52.164;10.530;2023-09-30T13:22:37;2.55;;;1.40;;
10244;SDS011;5167;52.164;10.530;2023-09-30T13:25:06;7.10;;;1.13;;
10244;SDS011;5167;52.164;10.530;2023-09-30T13:27:37;1.58;;;1.10;;
10244;SDS011;5167;52.164;10.530;2023-09-30T13:30:04;4.70;;;1.48;;
10244;SDS011;5167;52.164;10.530;2023-09-30T13:32:32;4.57;;;1.40;;
10244;SDS011;5167;52.164;10.530;2023-09-30T13:35:00;5.18;;;1.52;;
10244;SDS011;5167;52.164;10.530;2023-09-30T13:37:27;4.07;;;1.75;;
10244;SDS011;5167;52.164;10.530;2023-09-30T13:39:58;5.38;;;1.33;;
10244;SDS011;5167;52.164;10.530;2023-09-30T13:42:24;4.05;;;0.93;;
10244;SDS011;5167;52.164;10.530;2023-09-30T13:44:49;4.95;;;1.42;;
10244;SDS011;5167;52.164;10.530;2023-09-30T13:47:15;2.95;;;1.13;;
10244;SDS011;5167;52.164;10.530;2023-09-30T13:49:41;3.03;;;1.50;;
10244;SDS011;5167;52.164;10.530;2023-09-30T13:52:07;6.68;;;1.77;;
10244;SDS011;5167;52.164;10.530;2023-09-30T13:54:33;4.72;;;1.33;;
10244;SDS011;5167;52.164;10.530;2023-09-30T13:56:58;1.80;;;1.15;;
10244;SDS011;5167;52.164;10.530;2023-09-30T13:59:24;4.45;;;1.65;;
10244;SDS011;5167;52.164;10.530;2023-09-30T14:01:49;4.72;;;1.10;;
10244;SDS011;5167;52.164;10.530;2023-09-30T14:04:15;4.55;;;2.30;;
10244;SDS011;5167;52.164;10.530;2023-09-30T14:06:41;2.53;;;1.50;;
10244;SDS011;5167;52.164;10.530;2023-09-30T14:09:07;5.63;;;1.55;;
10244;SDS011;5167;52.164;10.530;2023-09-30T14:11:39;4.57;;;1.63;;
10244;SDS011;5167;52.164;10.530;2023-09-30T14:14:28;4.19;;;2.36;;
10244;SDS011;5167;52.164;10.530;2023-09-30T14:16:55;5.07;;;1.75;;
10244;SDS011;5167;52.164;10.530;2023-09-30T14:19:21;4.72;;;1.40;;
10244;SDS011;5167;52.164;10.530;2023-09-30T14:21:46;3.40;;;1.85;;
10244;SDS011;5167;52.164;10.530;2023-09-30T14:24:12;6.40;;;1.67;;
10244;SDS011;5167;52.164;10.530;2023-09-30T14:26:37;5.07;;;1.73;;
10244;SDS011;5167;52.164;10.530;2023-09-30T14:29:04;6.65;;;1.73;;
10244;SDS011;5167;52.164;10.530;2023-09-30T14:31:29;6.00;;;1.63;;
10244;SDS011;5167;52.164;10.530;2023-09-30T14:33:55;5.85;;;2.15;;
10244;SDS011;5167;52.164;10.530;2023-09-30T14:36:20;5.22;;;2.67;;
10244;SDS011;5167;52.164;10.530;2023-09-30T14:38:47;5.65;;;1.45;;
10244;SDS011;5167;52.164;10.530;2023-09-30T14:41:14;2.78;;;1.38;;
10244;SDS011;5167;52.164;10.530;2023-09-30T14:43:40;8.15;;;1.98;;
10244;SDS011;5167;52.164;10.530;2023-09-30T14:46:06;6.63;;;1.80;;
10244;SDS011;5167;52.164;10.530;2023-09-30T14:48:33;6.50;;;1.77;;
10244;SDS011;5167;52.164;10.530;2023-09-30T14:50:58;6.18;;;2.08;;
10244;SDS011;5167;52.164;10.530;2023-09-30T14:53:24;5.38;;;1.75;;
10244;SDS011;5167;52.164;10.530;2023-09-30T14:55:50;5.70;;;1.65;;
10244;SDS011;5167;52.164;10.530;2023-09-30T14:58:15;6.55;;;2.10;;
10244;SDS011;5167;52.164;10.530;2023-09-30T15:00:41;5.13;;;1.52;;
10244;SDS011;5167;52.164;10.530;2023-09-30T15:03:07;4.10;;;2.05;;
10244;SDS011;5167;52.164;10.530;2023-09-30T15:05:33;6.68;;;2.33;;
10244;SDS011;5167;52.164;10.530;2023-09-30T15:07:59;5.20;;;2.22;;